Terminal Aerodrome Forecast
Issued by NWS

Home | Current Version | Previous Version | Graphics & Text | Print | Product List | Glossary On
Versions: 1 2 3 4 5 6 7 8 9 10 11 12 13 14 15 16 17 18
000
FTUS43 KMPX 260500
TAFRNH
TAF
KRNH 260531Z 2606/2706 18003KT P6SM FEW025 OVC035
      TEMPO 2607/2609 3SM BR
     FM260900 00000KT 3SM BR SCT015
      TEMPO 2609/2612 1SM BR VV006
     FM261400 27004KT P6SM SCT020 SCT120
     FM261700 25008KT P6SM FEW035 SCT120
     FM270000 22009KT P6SM SCT120 PROB30 2702/2705 -SHRA BKN050=

USA.gov is the U.S. government's official web portal to all federal, state and local government web resources and services.